sensor_id;sensor_type;location;lat;lon;timestamp;P1;durP1;ratioP1;P2;durP2;ratioP2
17761;SDS011;9005;48.838;10.112;2024-01-06T00:01:00;4.65;;;1.90;;
17761;SDS011;9005;48.838;10.112;2024-01-06T00:03:27;3.25;;;2.05;;
17761;SDS011;9005;48.838;10.112;2024-01-06T00:05:53;4.43;;;2.40;;
17761;SDS011;9005;48.838;10.112;2024-01-06T00:08:20;3.83;;;2.25;;
17761;SDS011;9005;48.838;10.112;2024-01-06T00:10:47;4.45;;;2.42;;
17761;SDS011;9005;48.838;10.112;2024-01-06T00:13:13;5.25;;;2.78;;
17761;SDS011;9005;48.838;10.112;2024-01-06T00:15:40;4.88;;;2.22;;
17761;SDS011;9005;48.838;10.112;2024-01-06T00:18:08;3.45;;;2.17;;
17761;SDS011;9005;48.838;10.112;2024-01-06T00:20:35;2.92;;;1.65;;
17761;SDS011;9005;48.838;10.112;2024-01-06T00:23:02;1.52;;;1.20;;
17761;SDS011;9005;48.838;10.112;2024-01-06T00:25:29;3.13;;;2.03;;
17761;SDS011;9005;48.838;10.112;2024-01-06T00:27:56;6.15;;;2.47;;
17761;SDS011;9005;48.838;10.112;2024-01-06T00:30:22;4.65;;;2.13;;
17761;SDS011;9005;48.838;10.112;2024-01-06T00:32:49;2.70;;;1.88;;
17761;SDS011;9005;48.838;10.112;2024-01-06T00:35:17;4.40;;;2.08;;
17761;SDS011;9005;48.838;10.112;2024-01-06T00:37:44;2.38;;;1.73;;
17761;SDS011;9005;48.838;10.112;2024-01-06T00:40:11;2.42;;;1.73;;
17761;SDS011;9005;48.838;10.112;2024-01-06T00:42:38;3.42;;;2.20;;
17761;SDS011;9005;48.838;10.112;2024-01-06T00:45:05;3.47;;;2.00;;
17761;SDS011;9005;48.838;10.112;2024-01-06T00:47:32;4.20;;;2.05;;
17761;SDS011;9005;48.838;10.112;2024-01-06T00:49:59;3.42;;;2.15;;
17761;SDS011;9005;48.838;10.112;2024-01-06T00:52:27;3.50;;;2.28;;
17761;SDS011;9005;48.838;10.112;2024-01-06T00:54:54;4.03;;;2.20;;
17761;SDS011;9005;48.838;10.112;2024-01-06T00:57:20;4.40;;;2.17;;
17761;SDS011;9005;48.838;10.112;2024-01-06T00:59:49;3.90;;;2.33;;
17761;SDS011;9005;48.838;10.112;2024-01-06T01:02:16;4.15;;;2.38;;
17761;SDS011;9005;48.838;10.112;2024-01-06T01:04:42;3.22;;;1.90;;
17761;SDS011;9005;48.838;10.112;2024-01-06T01:07:09;4.65;;;2.47;;
17761;SDS011;9005;48.838;10.112;2024-01-06T01:09:37;4.32;;;2.50;;
17761;SDS011;9005;48.838;10.112;2024-01-06T01:12:04;3.40;;;2.05;;
17761;SDS011;9005;48.838;10.112;2024-01-06T01:14:31;3.92;;;2.20;;
17761;SDS011;9005;48.838;10.112;2024-01-06T01:16:58;3.45;;;2.22;;
17761;SDS011;9005;48.838;10.112;2024-01-06T01:19:24;4.85;;;2.70;;
17761;SDS011;9005;48.838;10.112;2024-01-06T01:21:51;5.50;;;2.47;;
17761;SDS011;9005;48.838;10.112;2024-01-06T01:24:20;4.57;;;2.45;;
17761;SDS011;9005;48.838;10.112;2024-01-06T01:26:48;4.72;;;2.40;;
17761;SDS011;9005;48.838;10.112;2024-01-06T01:29:15;2.38;;;1.83;;
17761;SDS011;9005;48.838;10.112;2024-01-06T01:31:42;5.88;;;2.40;;
17761;SDS011;9005;48.838;10.112;2024-01-06T01:34:08;4.30;;;2.47;;
17761;SDS011;9005;48.838;10.112;2024-01-06T01:36:35;5.15;;;2.50;;
17761;SDS011;9005;48.838;10.112;2024-01-06T01:39:02;3.47;;;2.28;;
17761;SDS011;9005;48.838;10.112;2024-01-06T01:41:29;4.03;;;2.40;;
17761;SDS011;9005;48.838;10.112;2024-01-06T01:43:57;4.00;;;2.30;;
17761;SDS011;9005;48.838;10.112;2024-01-06T01:46:24;5.75;;;2.67;;
17761;SDS011;9005;48.838;10.112;2024-01-06T01:48:52;5.15;;;2.22;;
17761;SDS011;9005;48.838;10.112;2024-01-06T01:51:20;4.32;;;2.08;;
17761;SDS011;9005;48.838;10.112;2024-01-06T01:53:46;2.58;;;1.67;;
17761;SDS011;9005;48.838;10.112;2024-01-06T01:56:13;3.25;;;2.00;;
17761;SDS011;9005;48.838;10.112;2024-01-06T01:58:40;3.60;;;1.75;;
17761;SDS011;9005;48.838;10.112;2024-01-06T02:01:09;4.30;;;1.83;;
17761;SDS011;9005;48.838;10.112;2024-01-06T02:03:36;5.47;;;2.58;;
17761;SDS011;9005;48.838;10.112;2024-01-06T02:06:03;4.07;;;2.00;;
17761;SDS011;9005;48.838;10.112;2024-01-06T02:08:30;3.70;;;2.13;;
17761;SDS011;9005;48.838;10.112;2024-01-06T02:10:57;3.28;;;1.42;;
17761;SDS011;9005;48.838;10.112;2024-01-06T02:13:23;2.25;;;1.73;;
17761;SDS011;9005;48.838;10.112;2024-01-06T02:15:50;3.13;;;1.70;;
17761;SDS011;9005;48.838;10.112;2024-01-06T02:18:19;3.47;;;1.85;;
17761;SDS011;9005;48.838;10.112;2024-01-06T02:20:46;4.10;;;1.85;;
17761;SDS011;9005;48.838;10.112;2024-01-06T02:23:15;2.97;;;2.17;;
17761;SDS011;9005;48.838;10.112;2024-01-06T02:25:42;5.22;;;1.60;;
17761;SDS011;9005;48.838;10.112;2024-01-06T02:28:09;2.80;;;1.73;;
17761;SDS011;9005;48.838;10.112;2024-01-06T02:30:35;2.67;;;1.85;;
17761;SDS011;9005;48.838;10.112;2024-01-06T02:33:02;1.67;;;1.33;;
17761;SDS011;9005;48.838;10.112;2024-01-06T02:35:29;3.33;;;1.92;;
17761;SDS011;9005;48.838;10.112;2024-01-06T02:37:56;3.67;;;1.85;;
17761;SDS011;9005;48.838;10.112;2024-01-06T02:40:24;3.70;;;1.55;;
17761;SDS011;9005;48.838;10.112;2024-01-06T02:42:51;5.28;;;2.45;;
17761;SDS011;9005;48.838;10.112;2024-01-06T02:45:17;2.50;;;1.95;;
17761;SDS011;9005;48.838;10.112;2024-01-06T02:47:44;3.22;;;1.90;;
17761;SDS011;9005;48.838;10.112;2024-01-06T02:50:11;3.42;;;1.70;;
17761;SDS011;9005;48.838;10.112;2024-01-06T02:52:38;3.40;;;1.58;;
17761;SDS011;9005;48.838;10.112;2024-01-06T02:55:04;2.58;;;1.48;;
17761;SDS011;9005;48.838;10.112;2024-01-06T02:57:33;7.10;;;2.38;;
17761;SDS011;9005;48.838;10.112;2024-01-06T03:00:00;3.35;;;1.52;;
17761;SDS011;9005;48.838;10.112;2024-01-06T03:02:28;3.30;;;1.88;;
17761;SDS011;9005;48.838;10.112;2024-01-06T03:04:54;4.55;;;2.15;;
17761;SDS011;9005;48.838;10.112;2024-01-06T03:07:21;3.45;;;2.22;;
17761;SDS011;9005;48.838;10.112;2024-01-06T03:09:48;4.35;;;2.25;;
17761;SDS011;9005;48.838;10.112;2024-01-06T03:12:14;2.85;;;1.52;;
17761;SDS011;9005;48.838;10.112;2024-01-06T03:14:42;3.53;;;2.00;;
17761;SDS011;9005;48.838;10.112;2024-01-06T03:17:09;3.50;;;1.75;;
17761;SDS011;9005;48.838;10.112;2024-01-06T03:19:36;4.10;;;1.88;;
17761;SDS011;9005;48.838;10.112;2024-01-06T03:22:03;10.93;;;3.03;;
17761;SDS011;9005;48.838;10.112;2024-01-06T03:24:29;2.60;;;1.80;;
17761;SDS011;9005;48.838;10.112;2024-01-06T03:26:56;3.42;;;2.20;;
17761;SDS011;9005;48.838;10.112;2024-01-06T03:29:23;3.65;;;2.13;;
17761;SDS011;9005;48.838;10.112;2024-01-06T03:31:51;2.67;;;1.67;;
17761;SDS011;9005;48.838;10.112;2024-01-06T03:34:18;4.03;;;2.38;;
17761;SDS011;9005;48.838;10.112;2024-01-06T03:36:44;3.42;;;1.73;;
17761;SDS011;9005;48.838;10.112;2024-01-06T03:39:11;3.35;;;1.80;;
17761;SDS011;9005;48.838;10.112;2024-01-06T03:41:39;2.70;;;1.90;;
17761;SDS011;9005;48.838;10.112;2024-01-06T03:44:05;3.40;;;1.67;;
17761;SDS011;9005;48.838;10.112;2024-01-06T03:46:32;5.18;;;1.98;;
17761;SDS011;9005;48.838;10.112;2024-01-06T03:49:01;3.15;;;1.70;;
17761;SDS011;9005;48.838;10.112;2024-01-06T03:51:28;2.80;;;1.60;;
17761;SDS011;9005;48.838;10.112;2024-01-06T03:53:55;3.65;;;1.92;;
17761;SDS011;9005;48.838;10.112;2024-01-06T03:56:22;3.78;;;2.20;;
17761;SDS011;9005;48.838;10.112;2024-01-06T03:58:49;3.22;;;2.00;;
17761;SDS011;9005;48.838;10.112;2024-01-06T04:01:15;2.58;;;1.70;;
17761;SDS011;9005;48.838;10.112;2024-01-06T04:03:42;2.25;;;1.55;;
17761;SDS011;9005;48.838;10.112;2024-01-06T04:06:10;4.47;;;1.88;;
17761;SDS011;9005;48.838;10.112;2024-01-06T04:08:38;3.05;;;1.50;;
17761;SDS011;9005;48.838;10.112;2024-01-06T04:11:05;2.67;;;1.63;;
17761;SDS011;9005;48.838;10.112;2024-01-06T04:13:32;3.20;;;1.63;;
17761;SDS011;9005;48.838;10.112;2024-01-06T04:15:59;2.55;;;1.92;;
17761;SDS011;9005;48.838;10.112;2024-01-06T04:18:26;4.22;;;2.03;;
17761;SDS011;9005;48.838;10.112;2024-01-06T04:20:52;3.72;;;1.95;;
17761;SDS011;9005;48.838;10.112;2024-01-06T04:23:20;2.92;;;1.85;;
17761;SDS011;9005;48.838;10.112;2024-01-06T04:25:48;3.42;;;1.70;;
17761;SDS011;9005;48.838;10.112;2024-01-06T04:28:15;2.60;;;1.70;;
17761;SDS011;9005;48.838;10.112;2024-01-06T04:30:41;2.95;;;2.00;;
17761;SDS011;9005;48.838;10.112;2024-01-06T04:33:08;4.60;;;1.63;;
17761;SDS011;9005;48.838;10.112;2024-01-06T04:35:35;1.88;;;1.45;;
17761;SDS011;9005;48.838;10.112;2024-01-06T04:38:01;3.20;;;1.80;;
17761;SDS011;9005;48.838;10.112;2024-01-06T04:40:29;4.10;;;1.90;;
17761;SDS011;9005;48.838;10.112;2024-01-06T04:42:56;3.30;;;2.03;;
17761;SDS011;9005;48.838;10.112;2024-01-06T04:45:23;2.55;;;1.85;;
17761;SDS011;9005;48.838;10.112;2024-01-06T04:47:49;2.50;;;1.30;;
17761;SDS011;9005;48.838;10.112;2024-01-06T04:50:16;2.60;;;1.55;;
17761;SDS011;9005;48.838;10.112;2024-01-06T04:52:43;3.47;;;1.73;;
17761;SDS011;9005;48.838;10.112;2024-01-06T04:55:10;3.00;;;1.75;;
17761;SDS011;9005;48.838;10.112;2024-01-06T04:57:38;2.40;;;1.60;;
17761;SDS011;9005;48.838;10.112;2024-01-06T05:00:05;5.57;;;2.15;;
17761;SDS011;9005;48.838;10.112;2024-01-06T05:02:33;3.47;;;2.10;;
17761;SDS011;9005;48.838;10.112;2024-01-06T05:04:59;4.13;;;1.83;;
17761;SDS011;9005;48.838;10.112;2024-01-06T05:07:26;3.92;;;1.92;;
17761;SDS011;9005;48.838;10.112;2024-01-06T05:09:53;3.45;;;1.77;;
17761;SDS011;9005;48.838;10.112;2024-01-06T05:12:21;4.43;;;1.70;;
17761;SDS011;9005;48.838;10.112;2024-01-06T05:14:49;4.38;;;1.83;;
17761;SDS011;9005;48.838;10.112;2024-01-06T05:17:15;4.50;;;2.00;;
17761;SDS011;9005;48.838;10.112;2024-01-06T05:19:42;2.70;;;1.52;;
17761;SDS011;9005;48.838;10.112;2024-01-06T05:22:09;4.10;;;1.70;;
17761;SDS011;9005;48.838;10.112;2024-01-06T05:24:35;2.53;;;1.60;;
17761;SDS011;9005;48.838;10.112;2024-01-06T05:27:02;5.82;;;2.25;;
17761;SDS011;9005;48.838;10.112;2024-01-06T05:29:29;2.72;;;1.85;;
17761;SDS011;9005;48.838;10.112;2024-01-06T05:31:57;2.65;;;1.80;;
17761;SDS011;9005;48.838;10.112;2024-01-06T05:34:24;4.00;;;1.85;;
17761;SDS011;9005;48.838;10.112;2024-01-06T05:36:51;2.88;;;1.55;;
17761;SDS011;9005;48.838;10.112;2024-01-06T05:39:18;3.08;;;1.45;;
17761;SDS011;9005;48.838;10.112;2024-01-06T05:41:45;4.75;;;1.55;;
17761;SDS011;9005;48.838;10.112;2024-01-06T05:44:11;1.92;;;1.60;;
17761;SDS011;9005;48.838;10.112;2024-01-06T05:46:38;2.05;;;1.40;;
17761;SDS011;9005;48.838;10.112;2024-01-06T05:49:06;2.10;;;1.52;;
17761;SDS011;9005;48.838;10.112;2024-01-06T05:51:33;2.05;;;1.50;;
17761;SDS011;9005;48.838;10.112;2024-01-06T05:54:00;5.15;;;1.35;;
17761;SDS011;9005;48.838;10.112;2024-01-06T05:56:27;2.00;;;1.70;;
17761;SDS011;9005;48.838;10.112;2024-01-06T05:58:55;2.95;;;1.17;;
17761;SDS011;9005;48.838;10.112;2024-01-06T06:01:22;3.67;;;1.60;;
17761;SDS011;9005;48.838;10.112;2024-01-06T06:03:48;1.88;;;1.40;;
17761;SDS011;9005;48.838;10.112;2024-01-06T06:06:17;1.85;;;1.50;;
17761;SDS011;9005;48.838;10.112;2024-01-06T06:08:45;2.85;;;1.80;;
17761;SDS011;9005;48.838;10.112;2024-01-06T06:11:13;3.47;;;1.23;;
17761;SDS011;9005;48.838;10.112;2024-01-06T06:13:40;2.60;;;1.45;;
17761;SDS011;9005;48.838;10.112;2024-01-06T06:16:08;4.80;;;1.67;;
17761;SDS011;9005;48.838;10.112;2024-01-06T06:18:37;4.80;;;1.20;;
17761;SDS011;9005;48.838;10.112;2024-01-06T06:21:04;2.35;;;1.48;;
17761;SDS011;9005;48.838;10.112;2024-01-06T06:23:33;3.08;;;1.30;;
17761;SDS011;9005;48.838;10.112;2024-01-06T06:26:01;3.17;;;1.48;;
17761;SDS011;9005;48.838;10.112;2024-01-06T06:28:30;3.72;;;1.00;;
17761;SDS011;9005;48.838;10.112;2024-01-06T06:30:57;3.08;;;1.85;;
17761;SDS011;9005;48.838;10.112;2024-01-06T06:33:24;2.45;;;1.40;;
17761;SDS011;9005;48.838;10.112;2024-01-06T06:35:50;3.85;;;1.25;;
17761;SDS011;9005;48.838;10.112;2024-01-06T06:38:17;2.88;;;1.20;;
17761;SDS011;9005;48.838;10.112;2024-01-06T06:40:45;3.25;;;1.52;;
17761;SDS011;9005;48.838;10.112;2024-01-06T06:43:12;4.03;;;1.67;;
17761;SDS011;9005;48.838;10.112;2024-01-06T06:45:39;2.67;;;1.15;;
17761;SDS011;9005;48.838;10.112;2024-01-06T06:48:06;1.83;;;1.30;;
17761;SDS011;9005;48.838;10.112;2024-01-06T06:50:33;4.18;;;1.60;;
17761;SDS011;9005;48.838;10.112;2024-01-06T06:52:59;2.38;;;1.25;;
17761;SDS011;9005;48.838;10.112;2024-01-06T06:55:27;2.58;;;1.30;;
17761;SDS011;9005;48.838;10.112;2024-01-06T06:57:55;3.95;;;1.50;;
17761;SDS011;9005;48.838;10.112;2024-01-06T07:00:22;2.60;;;0.93;;
17761;SDS011;9005;48.838;10.112;2024-01-06T07:02:48;3.83;;;1.48;;
17761;SDS011;9005;48.838;10.112;2024-01-06T07:05:15;2.45;;;1.20;;
17761;SDS011;9005;48.838;10.112;2024-01-06T07:07:42;3.67;;;1.40;;
17761;SDS011;9005;48.838;10.112;2024-01-06T07:10:11;2.03;;;1.30;;
17761;SDS011;9005;48.838;10.112;2024-01-06T07:12:38;3.17;;;1.40;;
17761;SDS011;9005;48.838;10.112;2024-01-06T07:15:07;1.58;;;1.35;;
17761;SDS011;9005;48.838;10.112;2024-01-06T07:17:35;2.05;;;1.27;;
17761;SDS011;9005;48.838;10.112;2024-01-06T07:20:03;2.17;;;1.13;;
17761;SDS011;9005;48.838;10.112;2024-01-06T07:22:31;5.20;;;1.38;;
17761;SDS011;9005;48.838;10.112;2024-01-06T07:24:59;1.25;;;0.93;;
17761;SDS011;9005;48.838;10.112;2024-01-06T07:27:26;2.92;;;1.30;;
17761;SDS011;9005;48.838;10.112;2024-01-06T07:29:53;3.13;;;1.27;;
17761;SDS011;9005;48.838;10.112;2024-01-06T07:32:21;3.85;;;0.85;;
17761;SDS011;9005;48.838;10.112;2024-01-06T07:34:48;1.92;;;1.00;;
17761;SDS011;9005;48.838;10.112;2024-01-06T07:37:15;2.72;;;1.30;;
17761;SDS011;9005;48.838;10.112;2024-01-06T07:39:42;2.60;;;1.02;;
17761;SDS011;9005;48.838;10.112;2024-01-06T07:42:08;2.58;;;0.68;;
17761;SDS011;9005;48.838;10.112;2024-01-06T07:44:35;2.05;;;0.93;;
17761;SDS011;9005;48.838;10.112;2024-01-06T07:47:02;3.42;;;1.17;;
17761;SDS011;9005;48.838;10.112;2024-01-06T07:49:31;3.72;;;1.42;;
17761;SDS011;9005;48.838;10.112;2024-01-06T07:51:58;1.58;;;0.80;;
17761;SDS011;9005;48.838;10.112;2024-01-06T07:54:25;4.05;;;1.55;;
17761;SDS011;9005;48.838;10.112;2024-01-06T07:56:51;4.63;;;1.30;;
17761;SDS011;9005;48.838;10.112;2024-01-06T07:59:18;2.63;;;1.20;;
17761;SDS011;9005;48.838;10.112;2024-01-06T08:01:45;1.60;;;0.85;;
17761;SDS011;9005;48.838;10.112;2024-01-06T08:04:12;1.80;;;1.00;;
17761;SDS011;9005;48.838;10.112;2024-01-06T08:06:40;2.60;;;1.17;;
17761;SDS011;9005;48.838;10.112;2024-01-06T08:09:06;6.93;;;3.33;;
17761;SDS011;9005;48.838;10.112;2024-01-06T08:11:34;4.38;;;1.63;;
17761;SDS011;9005;48.838;10.112;2024-01-06T08:14:01;1.88;;;1.15;;
17761;SDS011;9005;48.838;10.112;2024-01-06T08:16:28;3.28;;;1.08;;
17761;SDS011;9005;48.838;10.112;2024-01-06T08:18:55;2.58;;;1.10;;
17761;SDS011;9005;48.838;10.112;2024-01-06T08:21:21;1.73;;;1.00;;
17761;SDS011;9005;48.838;10.112;2024-01-06T08:23:49;4.82;;;1.42;;
17761;SDS011;9005;48.838;10.112;2024-01-06T08:26:16;2.30;;;1.00;;
17761;SDS011;9005;48.838;10.112;2024-01-06T08:28:43;3.20;;;1.50;;
17761;SDS011;9005;48.838;10.112;2024-01-06T08:31:10;3.90;;;1.30;;
17761;SDS011;9005;48.838;10.112;2024-01-06T08:33:37;1.27;;;0.98;;
17761;SDS011;9005;48.838;10.112;2024-01-06T08:36:04;4.78;;;1.63;;
17761;SDS011;9005;48.838;10.112;2024-01-06T08:38:32;3.65;;;1.40;;
17761;SDS011;9005;48.838;10.112;2024-01-06T08:41:00;2.83;;;1.20;;
17761;SDS011;9005;48.838;10.112;2024-01-06T08:43:27;1.75;;;1.00;;
17761;SDS011;9005;48.838;10.112;2024-01-06T08:45:53;2.08;;;1.08;;
17761;SDS011;9005;48.838;10.112;2024-01-06T08:48:20;1.73;;;1.42;;
17761;SDS011;9005;48.838;10.112;2024-01-06T08:50:47;1.48;;;1.15;;
17761;SDS011;9005;48.838;10.112;2024-01-06T08:53:14;2.45;;;1.25;;
17761;SDS011;9005;48.838;10.112;2024-01-06T08:55:41;2.55;;;1.23;;
17761;SDS011;9005;48.838;10.112;2024-01-06T08:58:09;2.75;;;1.48;;
17761;SDS011;9005;48.838;10.112;2024-01-06T09:00:35;2.47;;;1.08;;
17761;SDS011;9005;48.838;10.112;2024-01-06T09:03:02;2.22;;;1.27;;
17761;SDS011;9005;48.838;10.112;2024-01-06T09:05:29;4.47;;;1.42;;
17761;SDS011;9005;48.838;10.112;2024-01-06T09:07:56;3.55;;;1.30;;
17761;SDS011;9005;48.838;10.112;2024-01-06T09:10:23;2.45;;;1.23;;
17761;SDS011;9005;48.838;10.112;2024-01-06T09:12:49;1.60;;;1.00;;
17761;SDS011;9005;48.838;10.112;2024-01-06T09:15:17;2.47;;;1.10;;
17761;SDS011;9005;48.838;10.112;2024-01-06T09:17:44;2.80;;;1.08;;
17761;SDS011;9005;48.838;10.112;2024-01-06T09:20:11;2.05;;;1.17;;
17761;SDS011;9005;48.838;10.112;2024-01-06T09:22:37;3.42;;;1.50;;
17761;SDS011;9005;48.838;10.112;2024-01-06T09:25:05;1.25;;;1.10;;
17761;SDS011;9005;48.838;10.112;2024-01-06T09:27:32;2.78;;;1.48;;
17761;SDS011;9005;48.838;10.112;2024-01-06T09:29:58;3.40;;;1.30;;
17761;SDS011;9005;48.838;10.112;2024-01-06T09:32:27;1.25;;;1.05;;
17761;SDS011;9005;48.838;10.112;2024-01-06T09:34:53;2.03;;;1.20;;
17761;SDS011;9005;48.838;10.112;2024-01-06T09:37:20;1.77;;;1.23;;
17761;SDS011;9005;48.838;10.112;2024-01-06T09:39:47;2.22;;;1.17;;
17761;SDS011;9005;48.838;10.112;2024-01-06T09:42:14;1.55;;;1.30;;
17761;SDS011;9005;48.838;10.112;2024-01-06T09:44:41;2.55;;;1.10;;
17761;SDS011;9005;48.838;10.112;2024-01-06T09:47:08;2.00;;;0.80;;
17761;SDS011;9005;48.838;10.112;2024-01-06T09:49:39;2.08;;;1.25;;
17761;SDS011;9005;48.838;10.112;2024-01-06T09:52:13;1.92;;;1.27;;
17761;SDS011;9005;48.838;10.112;2024-01-06T09:54:43;2.17;;;1.10;;
17761;SDS011;9005;48.838;10.112;2024-01-06T09:57:15;1.13;;;1.00;;
17761;SDS011;9005;48.838;10.112;2024-01-06T09:59:43;1.73;;;1.33;;
17761;SDS011;9005;48.838;10.112;2024-01-06T10:02:11;1.80;;;1.40;;
17761;SDS011;9005;48.838;10.112;2024-01-06T10:04:41;2.35;;;1.27;;
17761;SDS011;9005;48.838;10.112;2024-01-06T10:07:08;1.90;;;1.13;;
17761;SDS011;9005;48.838;10.112;2024-01-06T10:09:38;2.10;;;1.30;;
17761;SDS011;9005;48.838;10.112;2024-01-06T10:12:06;1.23;;;0.80;;
17761;SDS011;9005;48.838;10.112;2024-01-06T10:14:34;1.77;;;0.98;;
17761;SDS011;9005;48.838;10.112;2024-01-06T10:17:01;1.95;;;1.08;;
17761;SDS011;9005;48.838;10.112;2024-01-06T10:19:31;4.15;;;1.48;;
17761;SDS011;9005;48.838;10.112;2024-01-06T10:21:59;1.88;;;0.80;;
17761;SDS011;9005;48.838;10.112;2024-01-06T10:24:27;1.77;;;1.08;;
17761;SDS011;9005;48.838;10.112;2024-01-06T10:26:55;1.98;;;1.05;;
17761;SDS011;9005;48.838;10.112;2024-01-06T10:29:22;1.35;;;1.00;;
17761;SDS011;9005;48.838;10.112;2024-01-06T10:31:50;1.70;;;1.00;;
17761;SDS011;9005;48.838;10.112;2024-01-06T10:34:18;1.40;;;1.10;;
17761;SDS011;9005;48.838;10.112;2024-01-06T10:36:45;1.90;;;0.93;;
17761;SDS011;9005;48.838;10.112;2024-01-06T10:39:14;5.22;;;3.30;;
17761;SDS011;9005;48.838;10.112;2024-01-06T10:41:41;0.77;;;0.73;;
17761;SDS011;9005;48.838;10.112;2024-01-06T10:44:09;1.33;;;0.80;;
17761;SDS011;9005;48.838;10.112;2024-01-06T10:46:37;1.05;;;0.95;;
17761;SDS011;9005;48.838;10.112;2024-01-06T10:49:05;1.83;;;0.82;;
17761;SDS011;9005;48.838;10.112;2024-01-06T10:51:33;1.27;;;0.90;;
17761;SDS011;9005;48.838;10.112;2024-01-06T10:54:00;1.50;;;0.70;;
17761;SDS011;9005;48.838;10.112;2024-01-06T10:56:30;0.80;;;0.70;;
17761;SDS011;9005;48.838;10.112;2024-01-06T10:58:56;1.60;;;0.90;;
17761;SDS011;9005;48.838;10.112;2024-01-06T11:01:24;1.92;;;1.00;;
17761;SDS011;9005;48.838;10.112;2024-01-06T11:03:50;0.85;;;0.70;;
17761;SDS011;9005;48.838;10.112;2024-01-06T11:06:19;1.73;;;1.10;;
17761;SDS011;9005;48.838;10.112;2024-01-06T11:08:48;0.73;;;0.73;;
17761;SDS011;9005;48.838;10.112;2024-01-06T11:11:19;1.30;;;1.00;;
17761;SDS011;9005;48.838;10.112;2024-01-06T11:13:47;1.45;;;1.10;;
17761;SDS011;9005;48.838;10.112;2024-01-06T11:19:02;0.80;;;0.60;;
17761;SDS011;9005;48.838;10.112;2024-01-06T11:21:32;1.73;;;0.90;;
17761;SDS011;9005;48.838;10.112;2024-01-06T11:24:13;0.98;;;0.60;;
17761;SDS011;9005;48.838;10.112;2024-01-06T11:26:45;1.48;;;0.98;;
17761;SDS011;9005;48.838;10.112;2024-01-06T11:29:17;1.73;;;0.88;;
17761;SDS011;9005;48.838;10.112;2024-01-06T11:31:44;1.35;;;0.98;;
17761;SDS011;9005;48.838;10.112;2024-01-06T11:34:47;1.95;;;1.08;;
17761;SDS011;9005;48.838;10.112;2024-01-06T11:37:16;0.93;;;0.80;;
17761;SDS011;9005;48.838;10.112;2024-01-06T11:39:44;1.67;;;0.90;;
17761;SDS011;9005;48.838;10.112;2024-01-06T11:42:11;0.73;;;0.70;;
17761;SDS011;9005;48.838;10.112;2024-01-06T11:44:39;0.90;;;0.77;;
17761;SDS011;9005;48.838;10.112;2024-01-06T11:47:10;1.00;;;0.57;;
17761;SDS011;9005;48.838;10.112;2024-01-06T11:49:38;0.88;;;0.65;;
17761;SDS011;9005;48.838;10.112;2024-01-06T11:52:04;1.75;;;0.65;;
17761;SDS011;9005;48.838;10.112;2024-01-06T11:54:32;0.50;;;0.50;;
17761;SDS011;9005;48.838;10.112;2024-01-06T11:56:59;1.30;;;0.77;;
17761;SDS011;9005;48.838;10.112;2024-01-06T11:59:25;1.50;;;0.70;;
17761;SDS011;9005;48.838;10.112;2024-01-06T12:01:54;2.53;;;0.63;;
17761;SDS011;9005;48.838;10.112;2024-01-06T12:04:20;1.65;;;1.38;;
17761;SDS011;9005;48.838;10.112;2024-01-06T12:06:50;1.77;;;1.38;;
17761;SDS011;9005;48.838;10.112;2024-01-06T12:09:17;1.73;;;0.80;;
17761;SDS011;9005;48.838;10.112;2024-01-06T12:11:45;0.95;;;0.60;;
17761;SDS011;9005;48.838;10.112;2024-01-06T12:14:12;1.33;;;0.70;;
17761;SDS011;9005;48.838;10.112;2024-01-06T12:16:38;0.60;;;0.60;;
17761;SDS011;9005;48.838;10.112;2024-01-06T12:19:07;0.60;;;0.60;;
17761;SDS011;9005;48.838;10.112;2024-01-06T12:21:34;0.73;;;0.60;;
17761;SDS011;9005;48.838;10.112;2024-01-06T12:24:18;1.10;;;0.82;;
17761;SDS011;9005;48.838;10.112;2024-01-06T12:26:46;1.52;;;0.73;;
17761;SDS011;9005;48.838;10.112;2024-01-06T12:29:13;0.60;;;0.60;;
17761;SDS011;9005;48.838;10.112;2024-01-06T12:31:40;0.60;;;0.60;;
17761;SDS011;9005;48.838;10.112;2024-01-06T12:34:09;0.63;;;0.63;;
17761;SDS011;9005;48.838;10.112;2024-01-06T12:36:36;0.50;;;0.50;;
17761;SDS011;9005;48.838;10.112;2024-01-06T12:39:04;1.13;;;0.70;;
17761;SDS011;9005;48.838;10.112;2024-01-06T12:41:41;0.70;;;0.70;;
17761;SDS011;9005;48.838;10.112;2024-01-06T12:44:08;2.10;;;1.00;;
17761;SDS011;9005;48.838;10.112;2024-01-06T12:46:35;0.82;;;0.80;;
17761;SDS011;9005;48.838;10.112;2024-01-06T12:49:02;0.88;;;0.88;;
17761;SDS011;9005;48.838;10.112;2024-01-06T12:51:30;1.08;;;0.85;;
17761;SDS011;9005;48.838;10.112;2024-01-06T12:53:57;7.85;;;4.70;;
17761;SDS011;9005;48.838;10.112;2024-01-06T12:56:24;0.77;;;0.77;;
17761;SDS011;9005;48.838;10.112;2024-01-06T12:58:50;0.70;;;0.70;;
17761;SDS011;9005;48.838;10.112;2024-01-06T13:01:18;0.75;;;0.70;;
17761;SDS011;9005;48.838;10.112;2024-01-06T13:03:44;1.92;;;1.15;;
17761;SDS011;9005;48.838;10.112;2024-01-06T13:06:11;1.80;;;1.02;;
17761;SDS011;9005;48.838;10.112;2024-01-06T13:08:39;1.27;;;1.17;;
17761;SDS011;9005;48.838;10.112;2024-01-06T13:11:06;0.82;;;0.82;;
17761;SDS011;9005;48.838;10.112;2024-01-06T13:13:33;1.25;;;1.02;;
17761;SDS011;9005;48.838;10.112;2024-01-06T13:16:00;1.00;;;0.80;;
17761;SDS011;9005;48.838;10.112;2024-01-06T13:18:28;0.90;;;0.73;;
17761;SDS011;9005;48.838;10.112;2024-01-06T13:20:55;0.60;;;0.60;;
17761;SDS011;9005;48.838;10.112;2024-01-06T13:23:21;1.05;;;0.90;;
17761;SDS011;9005;48.838;10.112;2024-01-06T13:25:50;0.60;;;0.60;;
17761;SDS011;9005;48.838;10.112;2024-01-06T13:28:17;0.70;;;0.70;;
17761;SDS011;9005;48.838;10.112;2024-01-06T13:30:43;0.57;;;0.57;;
17761;SDS011;9005;48.838;10.112;2024-01-06T13:33:11;0.75;;;0.75;;
17761;SDS011;9005;48.838;10.112;2024-01-06T13:35:38;4.60;;;1.27;;
17761;SDS011;9005;48.838;10.112;2024-01-06T13:38:05;1.17;;;1.00;;
17761;SDS011;9005;48.838;10.112;2024-01-06T13:40:33;0.60;;;0.60;;
17761;SDS011;9005;48.838;10.112;2024-01-06T13:43:02;0.43;;;0.40;;
17761;SDS011;9005;48.838;10.112;2024-01-06T13:45:30;0.68;;;0.60;;
17761;SDS011;9005;48.838;10.112;2024-01-06T13:47:56;1.00;;;0.90;;
17761;SDS011;9005;48.838;10.112;2024-01-06T13:50:23;0.70;;;0.63;;
17761;SDS011;9005;48.838;10.112;2024-01-06T13:52:50;0.80;;;0.80;;
17761;SDS011;9005;48.838;10.112;2024-01-06T13:55:16;0.60;;;0.60;;
17761;SDS011;9005;48.838;10.112;2024-01-06T13:57:43;0.65;;;0.50;;
17761;SDS011;9005;48.838;10.112;2024-01-06T14:00:12;0.80;;;0.80;;
17761;SDS011;9005;48.838;10.112;2024-01-06T14:02:43;1.10;;;0.70;;
17761;SDS011;9005;48.838;10.112;2024-01-06T14:05:10;0.90;;;0.75;;
17761;SDS011;9005;48.838;10.112;2024-01-06T14:07:37;0.70;;;0.70;;
17761;SDS011;9005;48.838;10.112;2024-01-06T14:10:05;0.85;;;0.80;;
17761;SDS011;9005;48.838;10.112;2024-01-06T14:12:32;0.90;;;0.90;;
17761;SDS011;9005;48.838;10.112;2024-01-06T14:15:00;0.80;;;0.80;;
17761;SDS011;9005;48.838;10.112;2024-01-06T14:17:28;0.60;;;0.60;;
17761;SDS011;9005;48.838;10.112;2024-01-06T14:19:54;1.20;;;0.82;;
17761;SDS011;9005;48.838;10.112;2024-01-06T14:22:21;0.70;;;0.70;;
17761;SDS011;9005;48.838;10.112;2024-01-06T14:24:48;0.75;;;0.65;;
17761;SDS011;9005;48.838;10.112;2024-01-06T14:27:15;0.70;;;0.70;;
17761;SDS011;9005;48.838;10.112;2024-01-06T14:29:42;0.70;;;0.70;;
17761;SDS011;9005;48.838;10.112;2024-01-06T14:32:08;1.40;;;0.90;;
17761;SDS011;9005;48.838;10.112;2024-01-06T14:34:36;1.35;;;0.80;;
17761;SDS011;9005;48.838;10.112;2024-01-06T14:37:03;1.30;;;0.88;;
17761;SDS011;9005;48.838;10.112;2024-01-06T14:39:30;2.10;;;0.88;;
17761;SDS011;9005;48.838;10.112;2024-01-06T14:41:57;0.70;;;0.65;;
17761;SDS011;9005;48.838;10.112;2024-01-06T14:44:24;1.42;;;1.10;;
17761;SDS011;9005;48.838;10.112;2024-01-06T14:46:53;0.90;;;0.80;;
17761;SDS011;9005;48.838;10.112;2024-01-06T14:49:19;0.88;;;0.88;;
17761;SDS011;9005;48.838;10.112;2024-01-06T14:51:47;1.15;;;0.63;;